Time;durP1;ratioP1;P1;durP2;ratioP2;P2;SDS_P1;SDS_P2;PMS_P1;PMS_P2;Temp;Humidity;BMP_temperature;BMP_pressure;BME280_temperature;BME280_humidity;BME280_pressure;Samples;Min_cycle;Max_cycle;Signal;HPM_P1;HPM_P2
2024/01/22 00:00:27;;;;;;;7.30;2.38;;;;;;;;;;5005976;28;20198;-63
2024/01/22 00:02:53;;;;;;;4.28;1.75;;;;;;;;;;5013102;28;20053;-63
2024/01/22 00:05:20;;;;;;;7.72;1.85;;;;;;;;;;4981302;28;20116;-63
2024/01/22 00:07:47;;;;;;;5.47;1.58;;;;;;;;;;5011857;28;20060;-63
2024/01/22 00:10:18;;;;;;;3.90;1.38;;;;;;;;;;5006517;28;20137;-64
2024/01/22 00:12:47;;;;;;;3.38;1.80;;;;;;;;;;5009519;28;20041;-64
2024/01/22 00:15:14;;;;;;;1.67;0.95;;;;;;;;;;4968699;28;20104;-64
2024/01/22 00:17:40;;;;;;;3.03;1.30;;;;;;;;;;4995094;28;20128;-63
2024/01/22 00:20:08;;;;;;;2.85;1.13;;;;;;;;;;4991882;28;20042;-63
2024/01/22 00:22:39;;;;;;;8.48;1.70;;;;;;;;;;5011012;28;20085;-64
2024/01/22 00:25:06;;;;;;;6.30;1.85;;;;;;;;;;4988150;28;20057;-65
2024/01/22 00:27:35;;;;;;;1.52;0.90;;;;;;;;;;4996624;28;20053;-66
2024/01/22 00:30:06;;;;;;;1.88;0.85;;;;;;;;;;4989626;28;20046;-66
2024/01/22 00:32:32;;;;;;;6.63;1.40;;;;;;;;;;4996396;28;20117;-64
2024/01/22 00:34:59;;;;;;;4.85;1.95;;;;;;;;;;4967215;28;20057;-63
2024/01/22 00:37:26;;;;;;;3.45;1.65;;;;;;;;;;4997109;28;20046;-65
2024/01/22 00:39:56;;;;;;;2.90;1.10;;;;;;;;;;4996661;28;20054;-70
2024/01/22 00:42:23;;;;;;;3.78;1.25;;;;;;;;;;4996322;28;20042;-66
2024/01/22 00:44:50;;;;;;;2.17;1.20;;;;;;;;;;4984604;28;20065;-65
2024/01/22 00:47:18;;;;;;;2.88;1.40;;;;;;;;;;4994787;28;20109;-65
2024/01/22 00:49:44;;;;;;;6.78;1.90;;;;;;;;;;4996916;28;20050;-66
2024/01/22 00:52:13;;;;;;;9.55;2.00;;;;;;;;;;4986910;28;20149;-66
2024/01/22 00:54:41;;;;;;;1.95;0.98;;;;;;;;;;4986217;28;20062;-68
2024/01/22 00:57:08;;;;;;;2.22;0.93;;;;;;;;;;5000699;28;20057;-65
2024/01/22 00:59:37;;;;;;;5.80;2.15;;;;;;;;;;5014062;28;20050;-67
2024/01/22 01:02:04;;;;;;;;;;;;;;;;;;4994008;28;20099;-66
2024/01/22 01:04:32;;;;;;;5.05;1.42;;;;;;;;;;5008167;28;19948;-65
2024/01/22 01:06:59;;;;;;;3.17;1.23;;;;;;;;;;4988460;28;20149;-65
2024/01/22 01:09:26;;;;;;;3.33;1.40;;;;;;;;;;4999786;28;20137;-67
2024/01/22 01:11:55;;;;;;;8.32;1.05;;;;;;;;;;4996407;28;20060;-64
2024/01/22 01:14:25;;;;;;;3.95;1.73;;;;;;;;;;4977440;28;20124;-65
2024/01/22 01:16:52;;;;;;;4.07;1.55;;;;;;;;;;4989840;28;20137;-67
2024/01/22 01:19:19;;;;;;;2.65;0.95;;;;;;;;;;5001810;28;20161;-67
2024/01/22 01:21:50;;;;;;;1.05;0.35;;;;;;;;;;4997076;28;20053;-65
2024/01/22 01:24:16;;;;;;;4.78;1.50;;;;;;;;;;4985211;28;20054;-66
2024/01/22 01:26:44;;;;;;;3.97;1.38;;;;;;;;;;5013109;28;20068;-65
2024/01/22 01:29:14;;;;;;;1.02;0.73;;;;;;;;;;4996887;28;20045;-66
2024/01/22 01:31:41;;;;;;;2.83;1.10;;;;;;;;;;5003420;28;20058;-66
2024/01/22 01:34:10;;;;;;;3.63;1.23;;;;;;;;;;4974874;28;20072;-68
2024/01/22 01:36:37;;;;;;;3.63;1.23;;;;;;;;;;4996570;28;20169;-67
2024/01/22 01:39:05;;;;;;;2.83;1.40;;;;;;;;;;4998031;28;20046;-66
2024/01/22 01:41:32;;;;;;;2.15;0.93;;;;;;;;;;4995936;28;20181;-67
2024/01/22 01:43:59;;;;;;;4.30;1.58;;;;;;;;;;5005667;28;20045;-68
2024/01/22 01:46:27;;;;;;;3.95;1.35;;;;;;;;;;4997401;28;20076;-66
2024/01/22 01:48:56;;;;;;;3.70;1.60;;;;;;;;;;4996463;28;20057;-69
2024/01/22 01:51:23;;;;;;;5.40;2.13;;;;;;;;;;5000454;28;20054;-67
2024/01/22 01:53:52;;;;;;;2.90;1.40;;;;;;;;;;5009891;28;20159;-66
2024/01/22 01:56:21;;;;;;;3.63;1.30;;;;;;;;;;4967213;28;20167;-71
2024/01/22 01:58:49;;;;;;;5.35;1.90;;;;;;;;;;4996969;28;20050;-66
2024/01/22 02:01:17;;;;;;;7.85;1.83;;;;;;;;;;4998985;28;20053;-65
2024/01/22 02:03:48;;;;;;;5.07;1.30;;;;;;;;;;4991263;28;20057;-66
2024/01/22 02:06:18;;;;;;;4.18;1.23;;;;;;;;;;4941094;28;20081;-68
2024/01/22 02:08:51;;;;;;;4.60;1.40;;;;;;;;;;4996253;28;20129;-66
2024/01/22 02:11:23;;;;;;;2.42;0.88;;;;;;;;;;4998300;28;20050;-72
2024/01/22 02:13:52;;;;;;;4.70;1.55;;;;;;;;;;5024441;28;20054;-69
2024/01/22 02:16:19;;;;;;;4.18;1.23;;;;;;;;;;4977015;28;20054;-67
2024/01/22 02:18:47;;;;;;;7.72;1.58;;;;;;;;;;4998901;28;20045;-67
2024/01/22 02:21:14;;;;;;;1.60;1.02;;;;;;;;;;4995670;28;20042;-67
2024/01/22 02:23:42;;;;;;;1.60;1.00;;;;;;;;;;4994958;28;20108;-65
2024/01/22 02:26:09;;;;;;;4.70;1.13;;;;;;;;;;4981280;28;20053;-68
2024/01/22 02:28:36;;;;;;;9.35;1.83;;;;;;;;;;4996239;28;20574;-69
2024/01/22 02:31:03;;;;;;;3.33;1.40;;;;;;;;;;4999324;28;20046;-68
2024/01/22 02:33:30;;;;;;;3.03;0.93;;;;;;;;;;4989486;28;20054;-68
2024/01/22 02:36:00;;;;;;;4.07;1.20;;;;;;;;;;4971523;28;20108;-66
2024/01/22 02:38:27;;;;;;;5.47;1.13;;;;;;;;;;4995902;28;20061;-65
2024/01/22 02:40:55;;;;;;;0.95;0.63;;;;;;;;;;4994634;28;20049;-67
2024/01/22 02:43:22;;;;;;;1.08;0.63;;;;;;;;;;4995494;28;20057;-72
2024/01/22 02:45:54;;;;;;;5.43;1.40;;;;;;;;;;4961846;28;21504;-69
2024/01/22 02:48:21;;;;;;;1.42;0.85;;;;;;;;;;4999113;28;20157;-66
2024/01/22 02:50:48;;;;;;;2.97;1.30;;;;;;;;;;4993634;28;20104;-68
2024/01/22 02:53:15;;;;;;;2.67;0.88;;;;;;;;;;4995656;28;20121;-68
2024/01/22 02:55:42;;;;;;;3.05;1.40;;;;;;;;;;4981546;28;20173;-70
2024/01/22 02:58:11;;;;;;;3.45;1.00;;;;;;;;;;4990560;28;20069;-70
2024/01/22 03:00:38;;;;;;;3.50;1.23;;;;;;;;;;5011491;28;20054;-71
2024/01/22 03:03:06;;;;;;;1.02;0.80;;;;;;;;;;4955268;28;20050;-69
2024/01/22 03:05:33;;;;;;;2.65;1.10;;;;;;;;;;4968947;28;20074;-68
2024/01/22 03:08:00;;;;;;;1.13;0.60;;;;;;;;;;4977521;28;20072;-68
2024/01/22 03:10:26;;;;;;;1.90;0.93;;;;;;;;;;4975396;28;20058;-69
2024/01/22 03:12:53;;;;;;;1.00;0.70;;;;;;;;;;4966337;28;20050;-65
2024/01/22 03:15:22;;;;;;;3.35;1.10;;;;;;;;;;4969632;28;20062;-67
2024/01/22 03:17:55;;;;;;;3.78;1.40;;;;;;;;;;4974761;28;20065;-68
2024/01/22 03:20:22;;;;;;;3.47;1.23;;;;;;;;;;4975736;28;20051;-69
2024/01/22 03:22:49;;;;;;;1.73;0.70;;;;;;;;;;4971692;28;20165;-68
2024/01/22 03:25:16;;;;;;;1.65;0.90;;;;;;;;;;4970735;28;20183;-67
2024/01/22 03:27:43;;;;;;;2.63;0.85;;;;;;;;;;4973581;28;20065;-68
2024/01/22 03:30:12;;;;;;;1.73;0.82;;;;;;;;;;4976396;28;20055;-66
2024/01/22 03:32:40;;;;;;;4.07;1.02;;;;;;;;;;4972974;28;20058;-65
2024/01/22 03:35:07;;;;;;;0.85;0.60;;;;;;;;;;4976641;28;20046;-69
2024/01/22 03:37:34;;;;;;;1.60;1.00;;;;;;;;;;4992135;28;20086;-65
2024/01/22 03:40:01;;;;;;;2.28;0.93;;;;;;;;;;4974138;28;20066;-67
2024/01/22 03:42:28;;;;;;;3.20;1.20;;;;;;;;;;4983376;28;20304;-66
2024/01/22 03:44:54;;;;;;;2.95;1.52;;;;;;;;;;4995624;28;20068;-65
2024/01/22 03:47:21;;;;;;;1.35;0.70;;;;;;;;;;4991090;28;20104;-68
2024/01/22 03:49:49;;;;;;;1.15;0.70;;;;;;;;;;4996616;28;20061;-67
2024/01/22 03:52:16;;;;;;;2.35;1.02;;;;;;;;;;4984113;28;21418;-67
2024/01/22 03:54:44;;;;;;;4.10;0.88;;;;;;;;;;4977858;28;20146;-70
2024/01/22 03:57:22;;;;;;;2.78;1.00;;;;;;;;;;4980001;28;20049;-69
2024/01/22 03:59:50;;;;;;;2.08;0.90;;;;;;;;;;4993953;28;20051;-72
2024/01/22 04:02:16;;;;;;;2.75;1.25;;;;;;;;;;4986772;28;20070;-66
2024/01/22 04:04:43;;;;;;;1.65;0.82;;;;;;;;;;4997349;28;20057;-70
2024/01/22 04:07:18;;;;;;;2.65;0.98;;;;;;;;;;4995720;28;20078;-71
2024/01/22 04:09:45;;;;;;;0.28;0.28;;;;;;;;;;4997519;28;20061;-65
2024/01/22 04:12:12;;;;;;;1.65;1.00;;;;;;;;;;4993048;28;20162;-69
2024/01/22 04:14:38;;;;;;;1.20;0.80;;;;;;;;;;4997942;28;20177;-68
2024/01/22 04:17:05;;;;;;;2.13;0.90;;;;;;;;;;4998729;28;20050;-67
2024/01/22 04:19:32;;;;;;;0.50;0.50;;;;;;;;;;4994274;28;20330;-69
2024/01/22 04:21:59;;;;;;;1.95;0.77;;;;;;;;;;4933994;28;20144;-72
2024/01/22 04:24:27;;;;;;;2.13;0.90;;;;;;;;;;4990848;28;20304;-66
2024/01/22 04:26:54;;;;;;;1.52;0.60;;;;;;;;;;5000877;28;20049;-69
2024/01/22 04:29:23;;;;;;;1.88;0.75;;;;;;;;;;4993444;28;20077;-67
2024/01/22 04:31:52;;;;;;;2.08;0.90;;;;;;;;;;4988409;28;20284;-68
2024/01/22 04:34:21;;;;;;;2.28;0.70;;;;;;;;;;5002509;28;20130;-68
2024/01/22 04:36:48;;;;;;;;;;;;;;;;;;4997692;28;20085;-70
2024/01/22 04:39:23;;;;;;;2.05;0.80;;;;;;;;;;4998899;28;19925;-68
2024/01/22 04:41:53;;;;;;;1.15;0.70;;;;;;;;;;4967312;28;20216;-69
2024/01/22 04:44:19;;;;;;;1.50;0.80;;;;;;;;;;4999822;28;20050;-66
2024/01/22 04:46:46;;;;;;;1.05;0.50;;;;;;;;;;5000341;28;20053;-67
2024/01/22 04:49:17;;;;;;;0.82;0.55;;;;;;;;;;4996918;28;20107;-66
2024/01/22 04:51:44;;;;;;;2.58;1.40;;;;;;;;;;4995686;28;20057;-68
2024/01/22 04:54:11;;;;;;;0.88;0.63;;;;;;;;;;5013523;28;20096;-69
2024/01/22 04:56:46;;;;;;;1.15;0.68;;;;;;;;;;4998381;28;20057;-68
2024/01/22 04:59:17;;;;;;;0.60;0.47;;;;;;;;;;4995817;28;20049;-67
2024/01/22 05:01:45;;;;;;;0.93;0.50;;;;;;;;;;4986245;28;20172;-68
2024/01/22 05:04:12;;;;;;;0.93;0.60;;;;;;;;;;4992364;28;20073;-67
2024/01/22 05:06:39;;;;;;;1.48;0.50;;;;;;;;;;4994348;28;20056;-67
2024/01/22 05:09:06;;;;;;;3.17;0.60;;;;;;;;;;4996955;28;20066;-68
2024/01/22 05:11:33;;;;;;;1.77;0.73;;;;;;;;;;4958927;28;20068;-66
2024/01/22 05:13:59;;;;;;;1.98;0.65;;;;;;;;;;4994974;28;20053;-65
2024/01/22 05:16:28;;;;;;;3.58;0.70;;;;;;;;;;5002233;28;20454;-68
2024/01/22 05:18:54;;;;;;;1.70;0.98;;;;;;;;;;4987384;28;20061;-64
2024/01/22 05:21:22;;;;;;;1.42;0.57;;;;;;;;;;4987883;28;20081;-67
2024/01/22 05:23:49;;;;;;;1.13;0.70;;;;;;;;;;4997148;28;20054;-68
2024/01/22 05:26:16;;;;;;;1.98;0.80;;;;;;;;;;4999580;28;20370;-65
2024/01/22 05:28:43;;;;;;;0.93;0.70;;;;;;;;;;4997195;28;20152;-66
2024/01/22 05:31:13;;;;;;;0.70;0.50;;;;;;;;;;4993618;28;20049;-68
2024/01/22 05:33:42;;;;;;;1.67;0.80;;;;;;;;;;4988311;28;20061;-68
2024/01/22 05:36:09;;;;;;;1.88;0.73;;;;;;;;;;4999154;28;20054;-64
2024/01/22 05:38:41;;;;;;;1.30;0.65;;;;;;;;;;4997381;28;20060;-64
2024/01/22 05:41:08;;;;;;;3.30;1.17;;;;;;;;;;4972921;28;20045;-67
2024/01/22 05:43:40;;;;;;;4.55;1.65;;;;;;;;;;4994266;28;20054;-66
2024/01/22 05:46:07;;;;;;;0.65;0.50;;;;;;;;;;4994198;28;20042;-66
2024/01/22 05:48:36;;;;;;;1.20;0.95;;;;;;;;;;4987240;28;20054;-68
2024/01/22 05:51:14;;;;;;;;;;;;;;;;;;4984557;28;20054;-68
2024/01/22 05:53:40;;;;;;;1.55;0.60;;;;;;;;;;4962683;28;19932;-67
2024/01/22 05:56:08;;;;;;;0.30;0.30;;;;;;;;;;4963989;28;20050;-67
2024/01/22 05:58:38;;;;;;;0.55;0.30;;;;;;;;;;4973068;28;20064;-67
2024/01/22 06:01:05;;;;;;;1.85;0.68;;;;;;;;;;4969904;28;20081;-67
2024/01/22 06:03:32;;;;;;;0.75;0.45;;;;;;;;;;4958679;28;20050;-68
2024/01/22 06:05:59;;;;;;;1.02;0.50;;;;;;;;;;4973051;28;20050;-67
2024/01/22 06:08:27;;;;;;;1.23;0.40;;;;;;;;;;4972854;28;20078;-67
2024/01/22 06:10:54;;;;;;;3.15;0.60;;;;;;;;;;4972436;28;20054;-67
2024/01/22 06:13:21;;;;;;;1.75;0.70;;;;;;;;;;4924436;28;20184;-65
2024/01/22 06:15:48;;;;;;;2.42;0.60;;;;;;;;;;4994195;28;20041;-65
2024/01/22 06:18:15;;;;;;;1.63;0.77;;;;;;;;;;4991003;28;20045;-67
2024/01/22 06:20:53;;;;;;;0.43;0.38;;;;;;;;;;4995274;28;20068;-69
2024/01/22 06:23:28;;;;;;;5.72;1.58;;;;;;;;;;4934810;28;20156;-66
2024/01/22 06:25:59;;;;;;;1.90;0.70;;;;;;;;;;4975617;28;20188;-67
2024/01/22 06:28:27;;;;;;;3.97;0.77;;;;;;;;;;4965239;28;20050;-67
2024/01/22 06:30:59;;;;;;;1.05;0.50;;;;;;;;;;4977803;28;20124;-67
2024/01/22 06:33:35;;;;;;;0.30;0.30;;;;;;;;;;4880690;28;20074;-69
2024/01/22 06:36:02;;;;;;;3.42;1.02;;;;;;;;;;4991906;28;20178;-69
2024/01/22 06:38:32;;;;;;;1.27;0.50;;;;;;;;;;4974447;28;20057;-70
2024/01/22 06:41:04;;;;;;;4.97;0.75;;;;;;;;;;4986735;28;20362;-68
2024/01/22 06:43:32;;;;;;;2.20;0.55;;;;;;;;;;4960136;28;20054;-70
2024/01/22 06:45:59;;;;;;;3.25;0.65;;;;;;;;;;4979056;28;20132;-67
2024/01/22 06:48:26;;;;;;;0.50;0.50;;;;;;;;;;4995465;28;20232;-69
2024/01/22 06:50:52;;;;;;;2.70;0.73;;;;;;;;;;4979575;28;20046;-67
2024/01/22 06:53:22;;;;;;;3.03;0.50;;;;;;;;;;4986727;28;20058;-67
2024/01/22 06:55:48;;;;;;;1.08;0.70;;;;;;;;;;4995837;28;20073;-68
2024/01/22 06:58:16;;;;;;;0.55;0.40;;;;;;;;;;5004752;28;20132;-68
2024/01/22 07:00:43;;;;;;;3.83;0.55;;;;;;;;;;4998626;28;20137;-67
2024/01/22 07:03:21;;;;;;;0.30;0.28;;;;;;;;;;4949481;28;20050;-68
2024/01/22 07:05:48;;;;;;;5.68;1.27;;;;;;;;;;4992906;28;20081;-66
2024/01/22 07:08:15;;;;;;;5.28;0.70;;;;;;;;;;5015257;28;20141;-66
2024/01/22 07:10:42;;;;;;;0.90;0.43;;;;;;;;;;4995934;28;20132;-66
2024/01/22 07:13:11;;;;;;;3.00;0.57;;;;;;;;;;4997036;28;20057;-65
2024/01/22 07:15:40;;;;;;;3.45;0.50;;;;;;;;;;4998706;28;20088;-67
2024/01/22 07:18:08;;;;;;;2.28;0.82;;;;;;;;;;4992055;28;20064;-66
2024/01/22 07:20:35;;;;;;;3.47;0.68;;;;;;;;;;5006026;28;20046;-65
2024/01/22 07:23:02;;;;;;;1.65;0.50;;;;;;;;;;4985898;28;20138;-66
2024/01/22 07:25:34;;;;;;;8.02;0.85;;;;;;;;;;4993172;28;20068;-67
2024/01/22 07:28:11;;;;;;;5.05;0.65;;;;;;;;;;5003211;28;20045;-66
2024/01/22 07:30:42;;;;;;;3.65;1.00;;;;;;;;;;5003036;28;20045;-66
2024/01/22 07:33:11;;;;;;;;;;;;;;;;;;4977027;28;20054;-67
2024/01/22 07:35:56;;;;;;;1.70;0.32;;;;;;;;;;4969695;28;20046;-65
2024/01/22 07:38:31;;;;;;;5.43;1.10;;;;;;;;;;4982729;28;20054;-66
2024/01/22 07:41:03;;;;;;;5.75;1.20;;;;;;;;;;4974257;28;20387;-66
2024/01/22 07:43:30;;;;;;;4.60;0.85;;;;;;;;;;4936760;28;20046;-66
2024/01/22 07:46:00;;;;;;;2.55;0.80;;;;;;;;;;5000595;28;20047;-66
2024/01/22 07:48:28;;;;;;;4.95;1.05;;;;;;;;;;5000435;28;20227;-66
2024/01/22 07:50:55;;;;;;;2.95;1.38;;;;;;;;;;5000623;28;20046;-68
2024/01/22 07:53:22;;;;;;;3.63;0.90;;;;;;;;;;4980729;28;20065;-67
2024/01/22 07:55:54;;;;;;;4.07;1.00;;;;;;;;;;5000913;28;20193;-66
2024/01/22 07:58:24;;;;;;;0.95;0.40;;;;;;;;;;5001948;28;20075;-66
2024/01/22 08:00:53;;;;;;;7.72;1.13;;;;;;;;;;4996247;28;20054;-68
2024/01/22 08:03:24;;;;;;;7.22;0.90;;;;;;;;;;4978746;28;20045;-68
2024/01/22 08:05:52;;;;;;;2.10;0.77;;;;;;;;;;5007500;28;20084;-66
2024/01/22 08:08:19;;;;;;;4.43;1.08;;;;;;;;;;4999647;28;20062;-68
2024/01/22 08:10:46;;;;;;;1.65;0.70;;;;;;;;;;4998814;28;20068;-67
2024/01/22 08:13:29;;;;;;;5.38;0.75;;;;;;;;;;4978079;28;20057;-66
2024/01/22 08:16:00;;;;;;;5.90;0.98;;;;;;;;;;5001703;28;20050;-67
2024/01/22 08:18:29;;;;;;;4.50;0.80;;;;;;;;;;5001871;28;20133;-67
2024/01/22 08:20:56;;;;;;;4.55;0.60;;;;;;;;;;4997770;28;20061;-69
2024/01/22 08:23:27;;;;;;;3.40;0.90;;;;;;;;;;4980247;28;20077;-67
2024/01/22 08:25:54;;;;;;;5.30;1.13;;;;;;;;;;4999250;28;20081;-66
2024/01/22 08:28:24;;;;;;;0.88;0.57;;;;;;;;;;4999605;28;20136;-68
2024/01/22 08:30:51;;;;;;;7.40;0.90;;;;;;;;;;5005184;28;20068;-65
2024/01/22 08:33:23;;;;;;;3.35;0.68;;;;;;;;;;4982230;28;20065;-66
2024/01/22 08:35:54;;;;;;;5.38;1.02;;;;;;;;;;4995630;28;20049;-66
2024/01/22 08:38:21;;;;;;;8.60;0.90;;;;;;;;;;5022942;28;20144;-66
2024/01/22 08:40:50;;;;;;;9.10;1.10;;;;;;;;;;4996824;28;20136;-65
2024/01/22 08:43:25;;;;;;;;;;;;;;;;;;4964377;28;20058;-67
2024/01/22 08:45:51;;;;;;;5.28;1.17;;;;;;;;;;4982620;28;20008;-66
2024/01/22 08:48:18;;;;;;;1.67;0.77;;;;;;;;;;4978771;28;20054;-65
2024/01/22 08:50:50;;;;;;;4.03;0.98;;;;;;;;;;4996584;28;20201;-67
2024/01/22 08:53:21;;;;;;;;;;;;;;;;;;4956746;28;20056;-65
2024/01/22 08:55:53;;;;;;;4.72;0.95;;;;;;;;;;4993160;28;19961;-66
2024/01/22 08:58:22;;;;;;;4.05;1.73;;;;;;;;;;4978231;28;20089;-66
2024/01/22 09:00:49;;;;;;;8.50;1.00;;;;;;;;;;4998696;28;20054;-69
2024/01/22 09:03:25;;;;;;;8.77;1.25;;;;;;;;;;4974439;28;20108;-69
2024/01/22 09:05:53;;;;;;;6.25;1.00;;;;;;;;;;4993683;28;20065;-67
2024/01/22 09:08:22;;;;;;;4.15;0.80;;;;;;;;;;4997400;28;20081;-67
2024/01/22 09:10:52;;;;;;;;;;;;;;;;;;4999998;28;20140;-68
2024/01/22 09:13:20;;;;;;;8.52;1.42;;;;;;;;;;4941827;28;19931;-70
2024/01/22 09:15:46;;;;;;;10.27;1.40;;;;;;;;;;4978378;28;20042;-67
2024/01/22 09:18:20;;;;;;;9.40;1.48;;;;;;;;;;4980486;28;20144;-68
2024/01/22 09:20:47;;;;;;;9.80;1.48;;;;;;;;;;4979149;28;20058;-72
2024/01/22 09:23:18;;;;;;;4.85;0.90;;;;;;;;;;4904734;28;20133;-68
2024/01/22 09:25:52;;;;;;;7.20;1.85;;;;;;;;;;4939144;28;20058;-67
2024/01/22 09:28:23;;;;;;;8.95;1.27;;;;;;;;;;4937705;28;20055;-67
2024/01/22 09:30:51;;;;;;;14.48;1.98;;;;;;;;;;4957760;28;20086;-65
2024/01/22 09:33:19;;;;;;;7.97;1.20;;;;;;;;;;4982001;28;20238;-67
2024/01/22 09:35:51;;;;;;;;;;;;;;;;;;4981074;28;20054;-67
2024/01/22 09:38:21;;;;;;;6.40;1.27;;;;;;;;;;4980452;28;20012;-66
2024/01/22 09:40:51;;;;;;;11.48;1.67;;;;;;;;;;4977976;28;20058;-67
2024/01/22 09:43:23;;;;;;;7.57;1.30;;;;;;;;;;4958840;28;20138;-66
2024/01/22 09:45:54;;;;;;;6.72;1.00;;;;;;;;;;5004617;28;20078;-66
2024/01/22 09:48:23;;;;;;;9.07;1.25;;;;;;;;;;4999559;28;20093;-67
2024/01/22 09:50:52;;;;;;;7.05;1.10;;;;;;;;;;5001532;28;20045;-68
2024/01/22 09:53:23;;;;;;;5.55;1.45;;;;;;;;;;4985456;28;20054;-68
2024/01/22 09:55:53;;;;;;;6.28;1.35;;;;;;;;;;5014117;28;20045;-67
2024/01/22 09:58:29;;;;;;;6.10;0.85;;;;;;;;;;4998607;28;20042;-67
2024/01/22 10:01:05;;;;;;;7.45;1.13;;;;;;;;;;4999991;28;20133;-68
2024/01/22 10:03:32;;;;;;;8.30;1.40;;;;;;;;;;4958997;28;20049;-69
2024/01/22 10:06:03;;;;;;;10.93;1.40;;;;;;;;;;5001172;28;20049;-70
2024/01/22 10:08:31;;;;;;;7.43;1.27;;;;;;;;;;4996886;28;20061;-68
2024/01/22 10:11:01;;;;;;;6.35;1.13;;;;;;;;;;4997980;28;20089;-67
2024/01/22 10:13:32;;;;;;;8.27;1.25;;;;;;;;;;4979575;28;20060;-66
2024/01/22 10:16:11;;;;;;;18.48;2.17;;;;;;;;;;4999878;28;20049;-66
2024/01/22 10:18:39;;;;;;;10.95;1.40;;;;;;;;;;5003970;28;20177;-67
2024/01/22 10:21:06;;;;;;;5.90;1.13;;;;;;;;;;4999503;28;20068;-66
2024/01/22 10:23:33;;;;;;;8.80;1.20;;;;;;;;;;4981293;28;20080;-68
2024/01/22 10:26:09;;;;;;;8.68;1.13;;;;;;;;;;4992325;28;20058;-65
2024/01/22 10:28:38;;;;;;;13.15;1.55;;;;;;;;;;4991613;28;20054;-66
2024/01/22 10:31:08;;;;;;;11.93;2.05;;;;;;;;;;5000343;28;20057;-65
2024/01/22 10:33:36;;;;;;;9.50;1.25;;;;;;;;;;4969250;28;20055;-66
2024/01/22 10:36:17;;;;;;;8.25;1.15;;;;;;;;;;4997766;28;20157;-66
2024/01/22 10:38:49;;;;;;;9.95;1.20;;;;;;;;;;4997799;28;20144;-65
2024/01/22 10:41:21;;;;;;;9.00;1.42;;;;;;;;;;4995390;28;20051;-66
2024/01/22 10:44:05;;;;;;;14.25;2.00;;;;;;;;;;4976844;28;20142;-65
2024/01/22 10:47:23;;;;;;;11.65;1.58;;;;;;;;;;4994456;28;20061;-64
2024/01/22 10:49:56;;;;;;;12.43;1.80;;;;;;;;;;4991429;28;20049;-67
2024/01/22 10:52:25;;;;;;;13.10;1.70;;;;;;;;;;4987026;28;20079;-66
2024/01/22 10:54:57;;;;;;;8.48;1.92;;;;;;;;;;4970643;28;20062;-66
2024/01/22 10:57:37;;;;;;;9.32;1.45;;;;;;;;;;4988535;28;20174;-66
2024/01/22 11:00:18;;;;;;;14.27;2.80;;;;;;;;;;4991069;28;20050;-66
2024/01/22 11:02:51;;;;;;;10.38;1.48;;;;;;;;;;4957415;28;20209;-67
2024/01/22 11:05:24;;;;;;;13.18;1.60;;;;;;;;;;4990323;28;20083;-68
2024/01/22 11:08:01;;;;;;;15.25;1.63;;;;;;;;;;4996557;28;20058;-68
2024/01/22 11:10:48;;;;;;;16.92;1.88;;;;;;;;;;5011700;28;20064;-66
2024/01/22 11:13:22;;;;;;;7.80;1.75;;;;;;;;;;4914415;28;20057;-66
2024/01/22 11:15:56;;;;;;;15.20;2.75;;;;;;;;;;4995970;28;20069;-67
2024/01/22 11:18:57;;;;;;;19.75;2.55;;;;;;;;;;4992462;28;20080;-68
2024/01/22 11:21:33;;;;;;;10.48;1.80;;;;;;;;;;5003216;28;20069;-66
2024/01/22 11:24:19;;;;;;;16.27;1.88;;;;;;;;;;4939622;28;20212;-68
2024/01/22 11:35:40;;;;;;;15.93;2.65;;;;;;;;;;4806950;29;20041;-68
2024/01/22 11:38:13;;;;;;;15.02;2.38;;;;;;;;;;4855836;29;20148;-67
2024/01/22 11:40:56;;;;;;;16.25;1.83;;;;;;;;;;4860431;29;20136;-67
2024/01/22 11:46:00;;;;;;;23.77;3.53;;;;;;;;;;4866367;28;20289;-65
2024/01/22 11:48:49;;;;;;;11.57;2.88;;;;;;;;;;4967969;28;20145;-66
2024/01/22 11:51:38;;;;;;;23.73;2.50;;;;;;;;;;5010383;28;20070;-67
2024/01/22 11:54:25;;;;;;;14.20;1.60;;;;;;;;;;4917325;28;20047;-67
2024/01/22 11:57:35;;;;;;;16.15;2.85;;;;;;;;;;4902957;28;20063;-67
2024/01/22 12:00:14;;;;;;;16.90;1.83;;;;;;;;;;4910248;28;20055;-68
2024/01/22 12:17:03;;;;;;;15.60;1.75;;;;;;;;;;6116503;22;4568099;-67
2024/01/22 12:19:45;;;;;;;15.52;1.92;;;;;;;;;;6259523;22;20028;-67
2024/01/22 12:22:14;;;;;;;16.52;2.00;;;;;;;;;;6267201;22;20102;-66
2024/01/22 12:24:42;;;;;;;17.48;2.85;;;;;;;;;;6214198;22;20163;-65
2024/01/22 12:27:10;;;;;;;16.02;2.72;;;;;;;;;;6235998;23;20070;-66
2024/01/22 12:29:45;;;;;;;16.93;2.00;;;;;;;;;;6231326;23;20050;-66
2024/01/22 12:32:47;;;;;;;23.23;2.45;;;;;;;;;;6235145;23;20077;-65
2024/01/22 12:35:26;;;;;;;17.88;2.47;;;;;;;;;;6128703;22;20083;-67
2024/01/22 12:37:59;;;;;;;24.10;3.70;;;;;;;;;;6144797;23;20029;-66
2024/01/22 12:40:32;;;;;;;19.13;2.80;;;;;;;;;;6178725;23;20024;-66
2024/01/22 12:43:26;;;;;;;14.57;1.75;;;;;;;;;;6128039;23;20026;-66
2024/01/22 13:23:56;;;;;;;14.48;1.70;;;;;;;;;;4908315;27;20560;-64
2024/01/22 13:26:35;;;;;;;10.32;1.65;;;;;;;;;;4868845;28;20073;-66
2024/01/22 13:29:06;;;;;;;;;;;;;;;;;;4824983;29;20049;-66
2024/01/22 13:38:41;;;;;;;20.77;2.38;;;;;;;;;;4895799;28;20138;-66
2024/01/22 13:41:48;;;;;;;16.58;2.42;;;;;;;;;;4890722;29;20105;-67
2024/01/22 13:44:33;;;;;;;12.30;2.15;;;;;;;;;;4868534;28;20072;-67
2024/01/22 13:47:33;;;;;;;15.82;1.65;;;;;;;;;;4944630;28;20085;-67
2024/01/22 13:50:19;;;;;;;15.95;2.00;;;;;;;;;;4929762;28;20138;-66
2024/01/22 13:53:16;;;;;;;14.02;1.60;;;;;;;;;;4937789;28;20161;-66
2024/01/22 13:55:50;;;;;;;16.42;2.70;;;;;;;;;;4958000;28;20051;-67
2024/01/22 13:58:49;;;;;;;14.43;1.77;;;;;;;;;;4932514;28;20195;-67
2024/01/22 14:05:54;;;;;;;23.07;3.13;;;;;;;;;;4860921;29;20048;-67
2024/01/22 14:08:26;;;;;;;16.27;2.17;;;;;;;;;;4948045;28;20156;-66
2024/01/22 14:14:22;;;;;;;15.20;2.22;;;;;;;;;;4906403;28;20116;-66
2024/01/22 14:17:23;;;;;;;22.65;1.58;;;;;;;;;;4903249;29;20115;-66
2024/01/22 14:23:23;;;;;;;17.00;1.80;;;;;;;;;;4872352;28;20080;-65
2024/01/22 14:26:03;;;;;;;19.67;2.15;;;;;;;;;;4885561;29;20068;-65
2024/01/22 14:28:36;;;;;;;8.68;1.92;;;;;;;;;;4858369;29;20083;-66
2024/01/22 14:31:48;;;;;;;27.73;5.25;;;;;;;;;;4887054;28;20057;-65
2024/01/22 14:34:51;;;;;;;22.98;2.83;;;;;;;;;;4847436;29;20091;-64
2024/01/22 14:37:25;;;;;;;12.95;2.35;;;;;;;;;;4899588;29;20068;-66
2024/01/22 14:39:52;;;;;;;12.98;1.40;;;;;;;;;;4977956;28;20047;-65
2024/01/22 14:42:21;;;;;;;13.98;1.63;;;;;;;;;;4961619;28;20092;-64
2024/01/22 14:47:57;;;;;;;9.48;1.85;;;;;;;;;;4934415;28;20055;-64
2024/01/22 14:50:44;;;;;;;;;;;;;;;;;;;;;
2024/01/22 14:54:00;;;;;;;;;;;;;;;;;;;;;
2024/01/22 15:22:58;;;;;;;16.23;2.00;;;;;;;;;;5971795;23;20034;-65
2024/01/22 15:25:38;;;;;;;17.65;2.15;;;;;;;;;;5993057;23;20282;-67
2024/01/22 15:28:08;;;;;;;11.85;2.28;;;;;;;;;;5991380;23;20027;-66
2024/01/22 15:30:37;;;;;;;19.48;3.25;;;;;;;;;;5977428;23;20103;-66
2024/01/22 15:33:05;;;;;;;;;;;;;;;;;;6001843;23;20030;-66
2024/01/22 15:35:37;;;;;;;19.88;2.50;;;;;;;;;;6107918;23;20269;-66
2024/01/22 15:38:13;;;;;;;18.50;2.00;;;;;;;;;;6137262;23;20041;-66
2024/01/22 15:40:49;;;;;;;20.02;2.30;;;;;;;;;;6096990;23;20034;-67
2024/01/22 15:43:28;;;;;;;18.63;1.92;;;;;;;;;;6112899;23;20029;-67
2024/01/22 15:45:56;;;;;;;13.80;2.20;;;;;;;;;;6109306;23;20039;-66
2024/01/22 15:48:25;;;;;;;13.30;2.30;;;;;;;;;;6074846;23;20160;-65
2024/01/22 15:50:53;;;;;;;17.83;2.05;;;;;;;;;;6088401;23;20021;-66
2024/01/22 15:53:31;;;;;;;16.50;3.25;;;;;;;;;;6114475;23;20061;-66
2024/01/22 15:56:03;;;;;;;16.30;3.13;;;;;;;;;;6093084;23;20030;-66
2024/01/22 15:58:38;;;;;;;19.02;2.15;;;;;;;;;;6119123;23;20022;-65
2024/01/22 16:01:08;;;;;;;24.42;3.05;;;;;;;;;;6128295;23;20112;-66
2024/01/22 16:03:56;;;;;;;22.17;3.03;;;;;;;;;;6124674;23;20021;-67
2024/01/22 16:06:28;;;;;;;16.25;2.13;;;;;;;;;;6101651;23;20108;-66
2024/01/22 16:09:05;;;;;;;20.35;2.80;;;;;;;;;;6112570;23;20033;-66
2024/01/22 16:11:37;;;;;;;16.73;2.15;;;;;;;;;;6085588;23;20033;-65
2024/01/22 16:14:07;;;;;;;11.98;2.00;;;;;;;;;;6105910;23;20033;-65
2024/01/22 16:16:37;;;;;;;20.35;2.50;;;;;;;;;;6132409;23;20039;-66
2024/01/22 16:19:13;;;;;;;12.90;2.40;;;;;;;;;;6123326;23;20057;-66
2024/01/22 16:21:43;;;;;;;19.60;2.55;;;;;;;;;;6112525;23;20108;-66
2024/01/22 16:24:23;;;;;;;21.70;2.55;;;;;;;;;;6099420;23;20060;-65
2024/01/22 16:26:54;;;;;;;20.75;2.33;;;;;;;;;;6099416;23;20022;-66
2024/01/22 16:29:33;;;;;;;23.80;2.33;;;;;;;;;;6111204;23;20420;-67
2024/01/22 16:32:28;;;;;;;13.73;2.25;;;;;;;;;;6082044;23;20032;-67
2024/01/22 16:35:28;;;;;;;12.03;2.23;;;;;;;;;;6095130;23;20065;-67
2024/01/22 16:38:08;;;;;;;17.15;1.83;;;;;;;;;;6121360;23;20269;-66
2024/01/22 16:40:50;;;;;;;11.88;1.48;;;;;;;;;;6097983;23;20037;-66
2024/01/22 16:43:39;;;;;;;14.48;1.98;;;;;;;;;;6127063;23;20030;-67
2024/01/22 16:46:06;;;;;;;21.23;2.10;;;;;;;;;;6090390;23;20116;-67
2024/01/22 16:48:33;;;;;;;22.00;2.17;;;;;;;;;;6133253;23;20025;-67
2024/01/22 16:51:05;;;;;;;16.73;2.35;;;;;;;;;;6132942;23;20089;-66
2024/01/22 16:53:34;;;;;;;12.32;2.10;;;;;;;;;;6132234;23;20025;-67
2024/01/22 16:56:04;;;;;;;15.20;2.40;;;;;;;;;;6125329;23;20021;-67
2024/01/22 16:58:39;;;;;;;31.00;2.78;;;;;;;;;;6155507;23;20039;-66
2024/01/22 17:01:06;;;;;;;21.95;2.13;;;;;;;;;;6131770;23;20029;-66